sensor_id;sensor_type;location;lat;lon;timestamp;temperature;humidity
4425;DHT22;2225;53.568;13.266;2023-02-15T00:02:00;4.70;93.40
4425;DHT22;2225;53.568;13.266;2023-02-15T00:04:27;4.70;93.40
4425;DHT22;2225;53.568;13.266;2023-02-15T00:07:14;4.70;93.40
4425;DHT22;2225;53.568;13.266;2023-02-15T00:09:42;4.70;93.50
4425;DHT22;2225;53.568;13.266;2023-02-15T00:12:09;4.70;93.60
4425;DHT22;2225;53.568;13.266;2023-02-15T00:14:36;4.60;93.60
4425;DHT22;2225;53.568;13.266;2023-02-15T00:17:03;4.60;93.70
4425;DHT22;2225;53.568;13.266;2023-02-15T00:19:30;4.60;93.80
4425;DHT22;2225;53.568;13.266;2023-02-15T00:21:57;4.50;93.70
4425;DHT22;2225;53.568;13.266;2023-02-15T00:24:24;4.50;93.80
4425;DHT22;2225;53.568;13.266;2023-02-15T00:26:51;4.50;94.00
4425;DHT22;2225;53.568;13.266;2023-02-15T00:29:19;4.40;93.90
4425;DHT22;2225;53.568;13.266;2023-02-15T00:31:46;4.40;94.00
4425;DHT22;2225;53.568;13.266;2023-02-15T00:34:19;4.40;94.00
4425;DHT22;2225;53.568;13.266;2023-02-15T00:36:50;4.30;94.00
4425;DHT22;2225;53.568;13.266;2023-02-15T00:39:17;4.30;94.00
4425;DHT22;2225;53.568;13.266;2023-02-15T00:41:45;4.30;94.00
4425;DHT22;2225;53.568;13.266;2023-02-15T00:44:13;4.30;94.10
4425;DHT22;2225;53.568;13.266;2023-02-15T00:46:40;4.30;94.10
4425;DHT22;2225;53.568;13.266;2023-02-15T00:49:09;4.20;94.10
4425;DHT22;2225;53.568;13.266;2023-02-15T00:51:37;4.30;94.10
4425;DHT22;2225;53.568;13.266;2023-02-15T00:54:04;4.20;94.20
4425;DHT22;2225;53.568;13.266;2023-02-15T00:56:31;4.20;94.20
4425;DHT22;2225;53.568;13.266;2023-02-15T00:58:58;4.20;94.20
4425;DHT22;2225;53.568;13.266;2023-02-15T01:01:25;4.10;94.20
4425;DHT22;2225;53.568;13.266;2023-02-15T01:03:52;4.10;94.30
4425;DHT22;2225;53.568;13.266;2023-02-15T01:06:19;4.10;94.30
4425;DHT22;2225;53.568;13.266;2023-02-15T01:08:47;4.10;94.30
4425;DHT22;2225;53.568;13.266;2023-02-15T01:11:17;4.10;94.30
4425;DHT22;2225;53.568;13.266;2023-02-15T01:13:51;4.10;94.40
4425;DHT22;2225;53.568;13.266;2023-02-15T01:16:20;4.10;94.30
4425;DHT22;2225;53.568;13.266;2023-02-15T01:18:47;4.10;94.30
4425;DHT22;2225;53.568;13.266;2023-02-15T01:21:20;4.00;94.30
4425;DHT22;2225;53.568;13.266;2023-02-15T01:23:47;4.00;94.40
4425;DHT22;2225;53.568;13.266;2023-02-15T01:26:15;4.00;94.40
4425;DHT22;2225;53.568;13.266;2023-02-15T01:28:43;4.00;94.50
4425;DHT22;2225;53.568;13.266;2023-02-15T01:31:14;4.00;94.40
4425;DHT22;2225;53.568;13.266;2023-02-15T01:33:45;4.00;94.40
4425;DHT22;2225;53.568;13.266;2023-02-15T01:36:13;4.00;94.50
4425;DHT22;2225;53.568;13.266;2023-02-15T01:38:40;4.00;94.50
4425;DHT22;2225;53.568;13.266;2023-02-15T01:41:08;4.00;94.60
4425;DHT22;2225;53.568;13.266;2023-02-15T01:43:55;3.90;94.60
4425;DHT22;2225;53.568;13.266;2023-02-15T01:49:15;3.90;94.60
4425;DHT22;2225;53.568;13.266;2023-02-15T01:51:45;3.90;94.60
4425;DHT22;2225;53.568;13.266;2023-02-15T01:54:22;4.00;94.60
4425;DHT22;2225;53.568;13.266;2023-02-15T01:56:53;4.00;94.60
4425;DHT22;2225;53.568;13.266;2023-02-15T01:59:23;3.90;94.50
4425;DHT22;2225;53.568;13.266;2023-02-15T02:01:56;3.90;94.60
4425;DHT22;2225;53.568;13.266;2023-02-15T02:04:31;3.90;94.60
4425;DHT22;2225;53.568;13.266;2023-02-15T02:07:02;3.90;94.60
4425;DHT22;2225;53.568;13.266;2023-02-15T02:09:31;3.90;94.60
4425;DHT22;2225;53.568;13.266;2023-02-15T02:11:58;3.90;94.60
4425;DHT22;2225;53.568;13.266;2023-02-15T02:14:26;3.90;94.70
4425;DHT22;2225;53.568;13.266;2023-02-15T02:17:21;3.90;94.70
4425;DHT22;2225;53.568;13.266;2023-02-15T02:23:23;3.80;94.70
4425;DHT22;2225;53.568;13.266;2023-02-15T02:29:16;3.80;95.00
4425;DHT22;2225;53.568;13.266;2023-02-15T02:32:24;3.80;94.90
4425;DHT22;2225;53.568;13.266;2023-02-15T02:35:11;3.80;95.00
4425;DHT22;2225;53.568;13.266;2023-02-15T02:40:49;3.70;95.00
4425;DHT22;2225;53.568;13.266;2023-02-15T02:46:03;3.70;94.90
4425;DHT22;2225;53.568;13.266;2023-02-15T02:48:34;3.70;94.90
4425;DHT22;2225;53.568;13.266;2023-02-15T02:51:01;3.70;94.90
4425;DHT22;2225;53.568;13.266;2023-02-15T02:53:30;3.70;94.70
4425;DHT22;2225;53.568;13.266;2023-02-15T02:56:16;3.60;94.80
4425;DHT22;2225;53.568;13.266;2023-02-15T03:01:47;3.60;94.90
4425;DHT22;2225;53.568;13.266;2023-02-15T03:04:46;3.60;94.90
4425;DHT22;2225;53.568;13.266;2023-02-15T03:07:20;3.60;94.90
4425;DHT22;2225;53.568;13.266;2023-02-15T03:09:51;3.60;95.10
4425;DHT22;2225;53.568;13.266;2023-02-15T03:12:27;3.60;95.00
4425;DHT22;2225;53.568;13.266;2023-02-15T03:15:13;3.60;95.40
4425;DHT22;2225;53.568;13.266;2023-02-15T03:17:44;3.60;95.00
4425;DHT22;2225;53.568;13.266;2023-02-15T03:20:26;3.60;95.00
4425;DHT22;2225;53.568;13.266;2023-02-15T03:23:05;3.60;95.20
4425;DHT22;2225;53.568;13.266;2023-02-15T03:25:37;3.50;95.10
4425;DHT22;2225;53.568;13.266;2023-02-15T03:28:09;3.50;95.20
4425;DHT22;2225;53.568;13.266;2023-02-15T03:30:40;3.50;95.20
4425;DHT22;2225;53.568;13.266;2023-02-15T03:33:09;3.50;95.20
4425;DHT22;2225;53.568;13.266;2023-02-15T03:35:49;3.50;95.20
4425;DHT22;2225;53.568;13.266;2023-02-15T03:38:32;3.50;95.40
4425;DHT22;2225;53.568;13.266;2023-02-15T03:41:01;3.50;95.40
4425;DHT22;2225;53.568;13.266;2023-02-15T03:43:44;3.50;95.30
4425;DHT22;2225;53.568;13.266;2023-02-15T03:46:16;3.50;95.30
4425;DHT22;2225;53.568;13.266;2023-02-15T03:49:03;3.50;95.20
4425;DHT22;2225;53.568;13.266;2023-02-15T03:51:36;3.50;95.10
4425;DHT22;2225;53.568;13.266;2023-02-15T03:54:14;3.50;95.20
4425;DHT22;2225;53.568;13.266;2023-02-15T03:57:03;3.50;95.20
4425;DHT22;2225;53.568;13.266;2023-02-15T04:00:03;3.50;95.20
4425;DHT22;2225;53.568;13.266;2023-02-15T04:03:11;3.50;95.10
4425;DHT22;2225;53.568;13.266;2023-02-15T04:05:43;3.50;95.20
4425;DHT22;2225;53.568;13.266;2023-02-15T04:08:11;3.50;95.10
4425;DHT22;2225;53.568;13.266;2023-02-15T04:10:39;3.50;95.10
4425;DHT22;2225;53.568;13.266;2023-02-15T04:13:32;3.50;95.10
4425;DHT22;2225;53.568;13.266;2023-02-15T04:15:59;3.50;95.20
4425;DHT22;2225;53.568;13.266;2023-02-15T04:18:43;3.50;95.20
4425;DHT22;2225;53.568;13.266;2023-02-15T04:21:29;3.50;95.30
4425;DHT22;2225;53.568;13.266;2023-02-15T04:24:15;3.50;95.20
4425;DHT22;2225;53.568;13.266;2023-02-15T04:27:02;3.50;95.20
4425;DHT22;2225;53.568;13.266;2023-02-15T04:29:30;3.50;95.20
4425;DHT22;2225;53.568;13.266;2023-02-15T04:31:59;3.40;95.10
4425;DHT22;2225;53.568;13.266;2023-02-15T04:34:27;3.50;95.20
4425;DHT22;2225;53.568;13.266;2023-02-15T04:36:54;3.40;95.10
4425;DHT22;2225;53.568;13.266;2023-02-15T04:39:21;3.40;95.10
4425;DHT22;2225;53.568;13.266;2023-02-15T04:41:48;3.40;95.10
4425;DHT22;2225;53.568;13.266;2023-02-15T04:44:15;3.40;95.20
4425;DHT22;2225;53.568;13.266;2023-02-15T04:46:42;3.40;95.20
4425;DHT22;2225;53.568;13.266;2023-02-15T04:49:09;3.40;95.40
4425;DHT22;2225;53.568;13.266;2023-02-15T04:51:36;3.40;95.60
4425;DHT22;2225;53.568;13.266;2023-02-15T04:54:03;3.40;95.80
4425;DHT22;2225;53.568;13.266;2023-02-15T04:56:30;3.40;96.00
4425;DHT22;2225;53.568;13.266;2023-02-15T04:58:57;3.40;96.20
4425;DHT22;2225;53.568;13.266;2023-02-15T05:01:24;3.40;96.90
4425;DHT22;2225;53.568;13.266;2023-02-15T05:03:51;3.50;97.40
4425;DHT22;2225;53.568;13.266;2023-02-15T05:06:18;3.50;97.80
4425;DHT22;2225;53.568;13.266;2023-02-15T05:08:45;3.60;97.60
4425;DHT22;2225;53.568;13.266;2023-02-15T05:11:12;3.70;97.60
4425;DHT22;2225;53.568;13.266;2023-02-15T05:13:40;3.70;97.40
4425;DHT22;2225;53.568;13.266;2023-02-15T05:16:06;3.80;97.30
4425;DHT22;2225;53.568;13.266;2023-02-15T05:18:34;3.90;97.30
4425;DHT22;2225;53.568;13.266;2023-02-15T05:21:00;4.00;97.30
4425;DHT22;2225;53.568;13.266;2023-02-15T05:23:27;4.00;97.30
4425;DHT22;2225;53.568;13.266;2023-02-15T05:25:54;4.10;97.40
4425;DHT22;2225;53.568;13.266;2023-02-15T05:28:40;4.20;97.50
4425;DHT22;2225;53.568;13.266;2023-02-15T05:31:33;4.30;97.50
4425;DHT22;2225;53.568;13.266;2023-02-15T05:34:00;4.40;97.60
4425;DHT22;2225;53.568;13.266;2023-02-15T05:36:27;4.50;97.30
4425;DHT22;2225;53.568;13.266;2023-02-15T05:38:55;4.50;97.30
4425;DHT22;2225;53.568;13.266;2023-02-15T05:41:22;4.60;97.20
4425;DHT22;2225;53.568;13.266;2023-02-15T05:43:49;4.70;97.30
4425;DHT22;2225;53.568;13.266;2023-02-15T05:46:16;4.70;97.30
4425;DHT22;2225;53.568;13.266;2023-02-15T05:48:43;4.80;97.50
4425;DHT22;2225;53.568;13.266;2023-02-15T05:51:12;4.80;97.60
4425;DHT22;2225;53.568;13.266;2023-02-15T05:53:40;4.90;98.30
4425;DHT22;2225;53.568;13.266;2023-02-15T05:56:09;4.80;98.30
4425;DHT22;2225;53.568;13.266;2023-02-15T05:58:39;4.90;98.40
4425;DHT22;2225;53.568;13.266;2023-02-15T06:01:11;4.90;98.30
4425;DHT22;2225;53.568;13.266;2023-02-15T06:03:44;5.00;98.30
4425;DHT22;2225;53.568;13.266;2023-02-15T06:06:12;5.00;98.20
4425;DHT22;2225;53.568;13.266;2023-02-15T06:08:39;5.10;98.30
4425;DHT22;2225;53.568;13.266;2023-02-15T06:11:06;5.20;98.20
4425;DHT22;2225;53.568;13.266;2023-02-15T06:13:33;5.20;98.10
4425;DHT22;2225;53.568;13.266;2023-02-15T06:16:05;5.30;98.20
4425;DHT22;2225;53.568;13.266;2023-02-15T06:18:32;5.30;98.20
4425;DHT22;2225;53.568;13.266;2023-02-15T06:21:00;5.30;98.20
4425;DHT22;2225;53.568;13.266;2023-02-15T06:23:26;5.40;98.20
4425;DHT22;2225;53.568;13.266;2023-02-15T06:25:53;5.40;98.10
4425;DHT22;2225;53.568;13.266;2023-02-15T06:28:20;5.40;98.20
4425;DHT22;2225;53.568;13.266;2023-02-15T06:30:47;5.40;98.10
4425;DHT22;2225;53.568;13.266;2023-02-15T06:33:14;5.40;98.10
4425;DHT22;2225;53.568;13.266;2023-02-15T06:35:41;5.40;98.20
4425;DHT22;2225;53.568;13.266;2023-02-15T06:38:08;5.40;98.10
4425;DHT22;2225;53.568;13.266;2023-02-15T06:40:35;5.40;98.10
4425;DHT22;2225;53.568;13.266;2023-02-15T06:43:02;5.50;98.20
4425;DHT22;2225;53.568;13.266;2023-02-15T06:45:29;5.50;98.20
4425;DHT22;2225;53.568;13.266;2023-02-15T06:47:55;5.50;98.20
4425;DHT22;2225;53.568;13.266;2023-02-15T06:50:22;5.50;98.10
4425;DHT22;2225;53.568;13.266;2023-02-15T06:52:49;5.60;98.20
4425;DHT22;2225;53.568;13.266;2023-02-15T06:55:22;5.60;98.20
4425;DHT22;2225;53.568;13.266;2023-02-15T06:57:48;5.60;98.40
4425;DHT22;2225;53.568;13.266;2023-02-15T07:00:17;5.60;98.10
4425;DHT22;2225;53.568;13.266;2023-02-15T07:02:44;5.60;98.10
4425;DHT22;2225;53.568;13.266;2023-02-15T07:05:11;5.60;98.10
4425;DHT22;2225;53.568;13.266;2023-02-15T07:07:38;5.60;98.10
4425;DHT22;2225;53.568;13.266;2023-02-15T07:10:06;5.60;98.10
4425;DHT22;2225;53.568;13.266;2023-02-15T07:12:33;5.50;98.10
4425;DHT22;2225;53.568;13.266;2023-02-15T07:15:10;5.50;98.50
4425;DHT22;2225;53.568;13.266;2023-02-15T07:17:42;5.50;98.20
4425;DHT22;2225;53.568;13.266;2023-02-15T07:20:18;5.50;98.30
4425;DHT22;2225;53.568;13.266;2023-02-15T07:22:47;5.50;98.30
4425;DHT22;2225;53.568;13.266;2023-02-15T07:25:14;5.50;98.30
4425;DHT22;2225;53.568;13.266;2023-02-15T07:27:41;5.60;98.40
4425;DHT22;2225;53.568;13.266;2023-02-15T07:30:10;5.60;98.40
4425;DHT22;2225;53.568;13.266;2023-02-15T07:32:39;5.60;98.40
4425;DHT22;2225;53.568;13.266;2023-02-15T07:35:27;5.60;98.30
4425;DHT22;2225;53.568;13.266;2023-02-15T07:37:54;5.70;98.30
4425;DHT22;2225;53.568;13.266;2023-02-15T07:40:21;5.70;98.30
4425;DHT22;2225;53.568;13.266;2023-02-15T07:42:50;5.80;98.20
4425;DHT22;2225;53.568;13.266;2023-02-15T07:45:21;5.80;98.20
4425;DHT22;2225;53.568;13.266;2023-02-15T07:47:48;5.80;98.10
4425;DHT22;2225;53.568;13.266;2023-02-15T07:50:15;5.80;98.10
4425;DHT22;2225;53.568;13.266;2023-02-15T07:52:42;5.90;98.20
4425;DHT22;2225;53.568;13.266;2023-02-15T07:55:09;5.90;98.20
4425;DHT22;2225;53.568;13.266;2023-02-15T07:57:46;5.90;98.10
4425;DHT22;2225;53.568;13.266;2023-02-15T08:00:15;6.00;98.20
4425;DHT22;2225;53.568;13.266;2023-02-15T08:02:51;6.00;98.50
4425;DHT22;2225;53.568;13.266;2023-02-15T08:05:40;6.10;98.00
4425;DHT22;2225;53.568;13.266;2023-02-15T08:08:08;6.10;98.00
4425;DHT22;2225;53.568;13.266;2023-02-15T08:13:59;6.20;97.80
4425;DHT22;2225;53.568;13.266;2023-02-15T08:19:19;6.20;97.70
4425;DHT22;2225;53.568;13.266;2023-02-15T08:21:50;6.20;97.80
4425;DHT22;2225;53.568;13.266;2023-02-15T08:24:20;6.30;97.80
4425;DHT22;2225;53.568;13.266;2023-02-15T08:26:49;6.30;97.70
4425;DHT22;2225;53.568;13.266;2023-02-15T08:29:19;6.30;97.70
4425;DHT22;2225;53.568;13.266;2023-02-15T08:31:49;6.40;97.70
4425;DHT22;2225;53.568;13.266;2023-02-15T08:34:21;6.40;97.70
4425;DHT22;2225;53.568;13.266;2023-02-15T08:36:48;6.50;97.60
4425;DHT22;2225;53.568;13.266;2023-02-15T08:39:15;6.60;97.40
4425;DHT22;2225;53.568;13.266;2023-02-15T08:41:44;6.60;97.40
4425;DHT22;2225;53.568;13.266;2023-02-15T08:44:13;6.70;97.30
4425;DHT22;2225;53.568;13.266;2023-02-15T08:46:43;6.70;97.10
4425;DHT22;2225;53.568;13.266;2023-02-15T08:49:13;6.70;97.10
4425;DHT22;2225;53.568;13.266;2023-02-15T08:51:44;6.70;97.20
4425;DHT22;2225;53.568;13.266;2023-02-15T08:54:13;6.80;97.10
4425;DHT22;2225;53.568;13.266;2023-02-15T08:56:43;6.80;97.10
4425;DHT22;2225;53.568;13.266;2023-02-15T08:59:19;6.80;96.90
4425;DHT22;2225;53.568;13.266;2023-02-15T09:01:48;6.90;97.10
4425;DHT22;2225;53.568;13.266;2023-02-15T09:04:17;7.00;96.90
4425;DHT22;2225;53.568;13.266;2023-02-15T09:06:46;7.00;96.90
4425;DHT22;2225;53.568;13.266;2023-02-15T09:09:15;7.10;96.90
4425;DHT22;2225;53.568;13.266;2023-02-15T09:11:44;7.20;96.90
4425;DHT22;2225;53.568;13.266;2023-02-15T09:14:18;7.20;96.80
4425;DHT22;2225;53.568;13.266;2023-02-15T09:16:52;7.30;96.50
4425;DHT22;2225;53.568;13.266;2023-02-15T09:19:21;7.40;96.10
4425;DHT22;2225;53.568;13.266;2023-02-15T09:21:48;7.40;95.90
4425;DHT22;2225;53.568;13.266;2023-02-15T09:24:16;7.40;95.90
4425;DHT22;2225;53.568;13.266;2023-02-15T09:26:46;7.40;96.00
4425;DHT22;2225;53.568;13.266;2023-02-15T09:29:14;7.40;95.90
4425;DHT22;2225;53.568;13.266;2023-02-15T09:31:44;7.40;95.80
4425;DHT22;2225;53.568;13.266;2023-02-15T09:34:13;7.50;95.90
4425;DHT22;2225;53.568;13.266;2023-02-15T09:36:44;7.50;96.00
4425;DHT22;2225;53.568;13.266;2023-02-15T09:39:13;7.50;96.00
4425;DHT22;2225;53.568;13.266;2023-02-15T09:50:58;7.70;95.70
4425;DHT22;2225;53.568;13.266;2023-02-15T09:54:07;7.70;95.50
4425;DHT22;2225;53.568;13.266;2023-02-15T09:56:53;7.80;95.50
4425;DHT22;2225;53.568;13.266;2023-02-15T09:59:33;7.80;95.70
4425;DHT22;2225;53.568;13.266;2023-02-15T10:02:24;7.90;95.60
4425;DHT22;2225;53.568;13.266;2023-02-15T10:05:34;7.90;95.60
4425;DHT22;2225;53.568;13.266;2023-02-15T10:08:10;8.00;95.40
4425;DHT22;2225;53.568;13.266;2023-02-15T10:10:57;8.00;95.50
4425;DHT22;2225;53.568;13.266;2023-02-15T10:23:03;8.20;95.00
4425;DHT22;2225;53.568;13.266;2023-02-15T10:25:51;8.30;95.10
4425;DHT22;2225;53.568;13.266;2023-02-15T10:29:08;8.30;95.10
4425;DHT22;2225;53.568;13.266;2023-02-15T10:31:50;8.40;94.80
4425;DHT22;2225;53.568;13.266;2023-02-15T10:34:41;8.40;95.00
4425;DHT22;2225;53.568;13.266;2023-02-15T10:40:19;8.60;95.00
4425;DHT22;2225;53.568;13.266;2023-02-15T10:48:49;8.90;94.20
4425;DHT22;2225;53.568;13.266;2023-02-15T10:54:55;9.00;94.00
4425;DHT22;2225;53.568;13.266;2023-02-15T10:57:43;9.10;94.00
4425;DHT22;2225;53.568;13.266;2023-02-15T11:00:34;9.10;93.80
4425;DHT22;2225;53.568;13.266;2023-02-15T11:06:09;9.20;93.60
4425;DHT22;2225;53.568;13.266;2023-02-15T11:08:43;9.20;93.50
4425;DHT22;2225;53.568;13.266;2023-02-15T11:11:36;9.30;93.50
4425;DHT22;2225;53.568;13.266;2023-02-15T11:14:15;9.30;93.50
4425;DHT22;2225;53.568;13.266;2023-02-15T11:16:51;9.40;93.70
4425;DHT22;2225;53.568;13.266;2023-02-15T11:19:49;9.40;93.40
4425;DHT22;2225;53.568;13.266;2023-02-15T11:22:20;9.50;93.20
4425;DHT22;2225;53.568;13.266;2023-02-15T11:24:48;9.50;93.20
4425;DHT22;2225;53.568;13.266;2023-02-15T11:27:22;9.60;93.20
4425;DHT22;2225;53.568;13.266;2023-02-15T11:32:43;9.60;92.90
4425;DHT22;2225;53.568;13.266;2023-02-15T11:37:50;9.70;92.70
4425;DHT22;2225;53.568;13.266;2023-02-15T11:40:31;9.70;92.60
4425;DHT22;2225;53.568;13.266;2023-02-15T11:43:10;9.70;92.70
4425;DHT22;2225;53.568;13.266;2023-02-15T11:45:45;9.80;92.70
4425;DHT22;2225;53.568;13.266;2023-02-15T11:48:14;9.80;92.40
4425;DHT22;2225;53.568;13.266;2023-02-15T11:50:42;9.80;92.70
4425;DHT22;2225;53.568;13.266;2023-02-15T11:53:20;9.80;92.70
4425;DHT22;2225;53.568;13.266;2023-02-15T11:55:51;9.90;92.90
4425;DHT22;2225;53.568;13.266;2023-02-15T11:58:23;9.90;92.90
4425;DHT22;2225;53.568;13.266;2023-02-15T12:04:17;10.10;92.70
4425;DHT22;2225;53.568;13.266;2023-02-15T12:07:19;10.10;92.70
4425;DHT22;2225;53.568;13.266;2023-02-15T12:13:12;10.20;92.30
4425;DHT22;2225;53.568;13.266;2023-02-15T12:15:48;10.30;92.40
4425;DHT22;2225;53.568;13.266;2023-02-15T12:18:52;10.30;92.40
4425;DHT22;2225;53.568;13.266;2023-02-15T12:21:25;10.40;92.50
4425;DHT22;2225;53.568;13.266;2023-02-15T12:24:20;10.40;92.20
4425;DHT22;2225;53.568;13.266;2023-02-15T12:26:57;10.40;92.00
4425;DHT22;2225;53.568;13.266;2023-02-15T12:29:28;10.50;92.10
4425;DHT22;2225;53.568;13.266;2023-02-15T12:31:58;10.50;92.10
4425;DHT22;2225;53.568;13.266;2023-02-15T12:34:29;10.50;92.30
4425;DHT22;2225;53.568;13.266;2023-02-15T12:37:02;10.60;92.20
4425;DHT22;2225;53.568;13.266;2023-02-15T12:39:56;10.60;92.20
4425;DHT22;2225;53.568;13.266;2023-02-15T12:42:25;10.70;92.00
4425;DHT22;2225;53.568;13.266;2023-02-15T12:45:28;10.70;91.80
4425;DHT22;2225;53.568;13.266;2023-02-15T12:50:50;10.70;92.20
4425;DHT22;2225;53.568;13.266;2023-02-15T12:53:32;10.80;92.00
4425;DHT22;2225;53.568;13.266;2023-02-15T12:56:02;10.80;92.00
4425;DHT22;2225;53.568;13.266;2023-02-15T12:58:32;10.80;92.00
4425;DHT22;2225;53.568;13.266;2023-02-15T13:03:38;10.90;92.00
4425;DHT22;2225;53.568;13.266;2023-02-15T13:06:17;10.90;91.90
4425;DHT22;2225;53.568;13.266;2023-02-15T13:08:50;10.90;91.90
4425;DHT22;2225;53.568;13.266;2023-02-15T13:11:26;11.00;92.00
4425;DHT22;2225;53.568;13.266;2023-02-15T13:14:03;11.00;92.20
4425;DHT22;2225;53.568;13.266;2023-02-15T13:16:43;11.00;91.80
4425;DHT22;2225;53.568;13.266;2023-02-15T13:19:31;11.00;91.70
4425;DHT22;2225;53.568;13.266;2023-02-15T13:22:08;11.10;91.60
4425;DHT22;2225;53.568;13.266;2023-02-15T13:24:46;11.10;91.70
4425;DHT22;2225;53.568;13.266;2023-02-15T13:27:20;11.10;91.80
4425;DHT22;2225;53.568;13.266;2023-02-15T13:29:51;11.10;91.80
4425;DHT22;2225;53.568;13.266;2023-02-15T13:32:33;11.10;91.80
4425;DHT22;2225;53.568;13.266;2023-02-15T13:35:04;11.10;91.80
4425;DHT22;2225;53.568;13.266;2023-02-15T13:37:45;11.10;91.70
4425;DHT22;2225;53.568;13.266;2023-02-15T13:40:34;11.20;91.80
4425;DHT22;2225;53.568;13.266;2023-02-15T13:43:37;11.20;91.90
4425;DHT22;2225;53.568;13.266;2023-02-15T13:46:20;11.30;91.50
4425;DHT22;2225;53.568;13.266;2023-02-15T13:49:14;11.30;91.30
4425;DHT22;2225;53.568;13.266;2023-02-15T13:52:07;11.30;91.50
4425;DHT22;2225;53.568;13.266;2023-02-15T14:01:28;11.30;91.40
4425;DHT22;2225;53.568;13.266;2023-02-15T14:04:35;11.30;91.20
4425;DHT22;2225;53.568;13.266;2023-02-15T14:07:48;11.30;91.20
4425;DHT22;2225;53.568;13.266;2023-02-15T14:10:31;11.20;91.20
4425;DHT22;2225;53.568;13.266;2023-02-15T14:13:41;11.20;91.30
4425;DHT22;2225;53.568;13.266;2023-02-15T14:16:26;11.20;91.30
4425;DHT22;2225;53.568;13.266;2023-02-15T14:19:33;11.20;91.40
4425;DHT22;2225;53.568;13.266;2023-02-15T14:22:23;11.20;91.40
4425;DHT22;2225;53.568;13.266;2023-02-15T14:25:25;11.20;91.50
4425;DHT22;2225;53.568;13.266;2023-02-15T14:28:18;11.20;91.40
4425;DHT22;2225;53.568;13.266;2023-02-15T14:31:09;11.20;91.30
4425;DHT22;2225;53.568;13.266;2023-02-15T14:33:40;11.20;91.40
4425;DHT22;2225;53.568;13.266;2023-02-15T14:36:17;11.20;91.50
4425;DHT22;2225;53.568;13.266;2023-02-15T14:39:14;11.20;91.30
4425;DHT22;2225;53.568;13.266;2023-02-15T14:44:54;11.10;91.40
4425;DHT22;2225;53.568;13.266;2023-02-15T14:47:35;11.10;91.40
4425;DHT22;2225;53.568;13.266;2023-02-15T14:56:16;11.10;91.40
4425;DHT22;2225;53.568;13.266;2023-02-15T15:01:33;11.00;91.40
4425;DHT22;2225;53.568;13.266;2023-02-15T15:04:04;11.00;91.40
4425;DHT22;2225;53.568;13.266;2023-02-15T15:06:41;11.00;91.40
4425;DHT22;2225;53.568;13.266;2023-02-15T15:09:12;10.90;91.40
4425;DHT22;2225;53.568;13.266;2023-02-15T15:11:49;10.90;91.40
4425;DHT22;2225;53.568;13.266;2023-02-15T15:17:01;10.80;91.50
4425;DHT22;2225;53.568;13.266;2023-02-15T15:22:25;10.70;91.90
4425;DHT22;2225;53.568;13.266;2023-02-15T15:24:58;10.70;91.60
4425;DHT22;2225;53.568;13.266;2023-02-15T15:27:48;10.60;91.60
4425;DHT22;2225;53.568;13.266;2023-02-15T15:35:36;10.40;91.90
4425;DHT22;2225;53.568;13.266;2023-02-15T15:38:39;10.40;92.00
4425;DHT22;2225;53.568;13.266;2023-02-15T15:44:53;10.20;92.30
4425;DHT22;2225;53.568;13.266;2023-02-15T15:50:19;10.00;92.50
4425;DHT22;2225;53.568;13.266;2023-02-15T15:52:54;9.90;92.60
4425;DHT22;2225;53.568;13.266;2023-02-15T15:55:26;9.80;92.60
4425;DHT22;2225;53.568;13.266;2023-02-15T15:58:01;9.80;92.60
4425;DHT22;2225;53.568;13.266;2023-02-15T16:00:39;9.70;92.70
4425;DHT22;2225;53.568;13.266;2023-02-15T16:03:23;9.60;92.70
4425;DHT22;2225;53.568;13.266;2023-02-15T16:05:51;9.50;92.90
4425;DHT22;2225;53.568;13.266;2023-02-15T16:08:37;9.40;92.80
4425;DHT22;2225;53.568;13.266;2023-02-15T16:11:27;9.40;93.00
4425;DHT22;2225;53.568;13.266;2023-02-15T16:13:56;9.30;93.20
4425;DHT22;2225;53.568;13.266;2023-02-15T16:16:27;9.20;93.00
4425;DHT22;2225;53.568;13.266;2023-02-15T16:18:58;9.10;93.20
4425;DHT22;2225;53.568;13.266;2023-02-15T16:21:32;9.10;93.10
4425;DHT22;2225;53.568;13.266;2023-02-15T16:27:43;9.00;93.40
4425;DHT22;2225;53.568;13.266;2023-02-15T16:30:17;8.90;93.50
4425;DHT22;2225;53.568;13.266;2023-02-15T16:32:52;8.80;93.60
4425;DHT22;2225;53.568;13.266;2023-02-15T16:35:20;8.80;93.80
4425;DHT22;2225;53.568;13.266;2023-02-15T16:37:47;8.70;94.00
4425;DHT22;2225;53.568;13.266;2023-02-15T16:42:51;8.70;94.60
4425;DHT22;2225;53.568;13.266;2023-02-15T16:45:22;8.70;94.60
4425;DHT22;2225;53.568;13.266;2023-02-15T16:47:54;8.70;94.60
4425;DHT22;2225;53.568;13.266;2023-02-15T16:50:27;8.70;94.80
4425;DHT22;2225;53.568;13.266;2023-02-15T16:52:57;8.70;94.70
4425;DHT22;2225;53.568;13.266;2023-02-15T16:55:26;8.70;94.70
4425;DHT22;2225;53.568;13.266;2023-02-15T16:57:59;8.70;94.70
4425;DHT22;2225;53.568;13.266;2023-02-15T17:00:31;8.70;94.70
4425;DHT22;2225;53.568;13.266;2023-02-15T17:03:19;8.70;94.60
4425;DHT22;2225;53.568;13.266;2023-02-15T17:05:51;8.70;94.60
4425;DHT22;2225;53.568;13.266;2023-02-15T17:11:19;8.80;94.50
4425;DHT22;2225;53.568;13.266;2023-02-15T17:16:44;8.80;94.60
4425;DHT22;2225;53.568;13.266;2023-02-15T17:19:23;8.80;94.50
4425;DHT22;2225;53.568;13.266;2023-02-15T17:22:01;8.80;94.30
4425;DHT22;2225;53.568;13.266;2023-02-15T17:26:59;8.80;94.30
4425;DHT22;2225;53.568;13.266;2023-02-15T17:29:33;8.80;94.40
4425;DHT22;2225;53.568;13.266;2023-02-15T17:32:16;8.80;94.40
4425;DHT22;2225;53.568;13.266;2023-02-15T17:34:57;8.80;94.50
4425;DHT22;2225;53.568;13.266;2023-02-15T17:40:32;8.70;94.40
4425;DHT22;2225;53.568;13.266;2023-02-15T17:43:01;8.70;94.40
4425;DHT22;2225;53.568;13.266;2023-02-15T17:45:36;8.70;94.50
4425;DHT22;2225;53.568;13.266;2023-02-15T17:48:13;8.70;94.60
4425;DHT22;2225;53.568;13.266;2023-02-15T17:50:47;8.70;94.60
4425;DHT22;2225;53.568;13.266;2023-02-15T17:53:16;8.70;94.80
4425;DHT22;2225;53.568;13.266;2023-02-15T17:55:44;8.60;94.80
4425;DHT22;2225;53.568;13.266;2023-02-15T17:58:14;8.60;94.80
4425;DHT22;2225;53.568;13.266;2023-02-15T18:00:48;8.60;94.90
4425;DHT22;2225;53.568;13.266;2023-02-15T18:03:47;8.60;95.00
4425;DHT22;2225;53.568;13.266;2023-02-15T18:06:35;8.60;95.00
4425;DHT22;2225;53.568;13.266;2023-02-15T18:09:24;8.60;94.90
4425;DHT22;2225;53.568;13.266;2023-02-15T18:12:25;8.60;94.90
4425;DHT22;2225;53.568;13.266;2023-02-15T18:14:54;8.60;95.10
4425;DHT22;2225;53.568;13.266;2023-02-15T18:17:32;8.60;94.90
4425;DHT22;2225;53.568;13.266;2023-02-15T18:20:09;8.60;95.00
4425;DHT22;2225;53.568;13.266;2023-02-15T18:22:44;8.60;95.00
4425;DHT22;2225;53.568;13.266;2023-02-15T18:25:13;8.50;94.90
4425;DHT22;2225;53.568;13.266;2023-02-15T18:27:41;8.50;95.00
4425;DHT22;2225;53.568;13.266;2023-02-15T18:30:14;8.50;95.00
4425;DHT22;2225;53.568;13.266;2023-02-15T18:32:47;8.50;95.00
4425;DHT22;2225;53.568;13.266;2023-02-15T18:35:19;8.50;95.00
4425;DHT22;2225;53.568;13.266;2023-02-15T18:37:48;8.50;95.00
4425;DHT22;2225;53.568;13.266;2023-02-15T18:40:18;8.50;94.90
4425;DHT22;2225;53.568;13.266;2023-02-15T18:42:46;8.50;95.00
4425;DHT22;2225;53.568;13.266;2023-02-15T18:45:23;8.50;95.00
4425;DHT22;2225;53.568;13.266;2023-02-15T18:47:53;8.50;95.00
4425;DHT22;2225;53.568;13.266;2023-02-15T18:50:21;8.50;95.00
4425;DHT22;2225;53.568;13.266;2023-02-15T18:52:49;8.50;95.00
4425;DHT22;2225;53.568;13.266;2023-02-15T18:55:19;8.50;95.00
4425;DHT22;2225;53.568;13.266;2023-02-15T18:57:51;8.50;95.10